Time;durP1;ratioP1;P1;durP2;ratioP2;P2;SDS_P1;SDS_P2;PMS_P1;PMS_P2;Temp;Humidity;BMP_temperature;BMP_pressure;BME280_temperature;BME280_humidity;BME280_pressure;Samples;Min_cycle;Max_cycle;Signal;HPM_P1;HPM_P2
2022/07/19 00:00:42;;;;;;;8.48;2.83;;;17.40;99.90;;;;;;7331698;32;20179;-61
2022/07/19 00:04:44;;;;;;;8.57;3.10;;;17.20;99.90;;;;;;7344511;32;20122;-62
2022/07/19 00:08:45;;;;;;;13.93;3.15;;;17.20;99.90;;;;;;7355836;32;20488;-61
2022/07/19 00:12:48;;;;;;;8.95;2.72;;;17.20;99.90;;;;;;7357191;32;20294;-61
2022/07/19 00:16:50;;;;;;;4.95;2.50;;;17.10;99.90;;;;;;7356529;32;20469;-62
2022/07/19 00:20:51;;;;;;;10.02;2.50;;;17.10;99.90;;;;;;7356627;32;20155;-62
2022/07/19 00:24:53;;;;;;;6.95;2.30;;;17.10;99.90;;;;;;7357657;32;20111;-62
2022/07/19 00:28:56;;;;;;;7.72;2.62;;;17.10;99.90;;;;;;7356435;32;20135;-63
2022/07/19 00:32:57;;;;;;;10.43;3.12;;;17.00;99.90;;;;;;7358476;32;20465;-62
2022/07/19 00:36:59;;;;;;;6.30;2.40;;;17.00;99.90;;;;;;7361599;32;20121;-62
2022/07/19 00:41:02;;;;;;;13.77;3.45;;;17.00;99.90;;;;;;7360849;32;20190;-62
2022/07/19 00:45:04;;;;;;;6.00;2.42;;;17.00;99.90;;;;;;7361879;32;20103;-62
2022/07/19 00:49:06;;;;;;;11.20;2.83;;;17.00;99.90;;;;;;7361457;32;20195;-62
2022/07/19 00:53:08;;;;;;;11.45;2.70;;;17.00;99.90;;;;;;7361233;32;20564;-62
2022/07/19 00:57:11;;;;;;;13.27;3.15;;;16.90;99.90;;;;;;7352087;32;20198;-62
2022/07/19 01:01:13;;;;;;;7.53;2.70;;;16.80;99.90;;;;;;7334755;32;20132;-62
2022/07/19 01:05:15;;;;;;;12.37;2.85;;;16.80;99.90;;;;;;7336241;32;20161;-62
2022/07/19 01:09:16;;;;;;;9.77;2.62;;;16.70;99.90;;;;;;7341010;32;20111;-62
2022/07/19 01:13:18;;;;;;;9.90;2.67;;;16.60;99.90;;;;;;7361323;32;20123;-62
2022/07/19 01:17:20;;;;;;;5.18;2.30;;;16.50;99.90;;;;;;7361205;32;20107;-62
2022/07/19 01:21:23;;;;;;;9.10;2.60;;;16.50;99.90;;;;;;7360377;32;20126;-62
2022/07/19 01:25:31;;;;;;;8.10;2.60;;;16.40;99.90;;;;;;7361314;32;20103;-62
2022/07/19 01:29:35;;;;;;;;;;;16.40;99.90;;;;;;7360780;32;20129;-62
2022/07/19 01:33:42;;;;;;;8.57;2.70;;;16.30;99.90;;;;;;7361395;32;20672;-60
2022/07/19 01:37:44;;;;;;;;;;;16.30;99.90;;;;;;7360055;32;20099;-60
2022/07/19 01:41:46;;;;;;;5.95;2.60;;;16.30;99.90;;;;;;7360492;32;20003;-60
2022/07/19 01:45:48;;;;;;;6.03;2.65;;;16.20;99.90;;;;;;7359965;32;20183;-60
2022/07/19 01:49:49;;;;;;;6.40;2.70;;;16.20;99.90;;;;;;7359890;32;20121;-60
2022/07/19 01:53:51;;;;;;;6.20;2.67;;;16.20;99.90;;;;;;7355630;32;20217;-61
2022/07/19 01:57:53;;;;;;;5.10;2.40;;;16.10;99.90;;;;;;7345889;32;20226;-60
2022/07/19 02:01:55;;;;;;;5.45;2.17;;;16.10;99.90;;;;;;7359732;32;20194;-61
2022/07/19 02:05:56;;;;;;;8.93;2.37;;;16.10;99.90;;;;;;7360399;32;20100;-60
2022/07/19 02:09:58;;;;;;;5.78;2.40;;;16.00;99.90;;;;;;7358768;32;20190;-61
2022/07/19 02:14:00;;;;;;;8.73;2.72;;;16.00;99.90;;;;;;7359280;32;20127;-60
2022/07/19 02:18:02;;;;;;;6.68;2.35;;;16.00;99.90;;;;;;7359423;32;20104;-61
2022/07/19 02:22:04;;;;;;;9.10;2.60;;;16.00;99.90;;;;;;7360045;32;20127;-61
2022/07/19 02:26:06;;;;;;;7.10;2.35;;;15.90;99.90;;;;;;7359938;32;20131;-61
2022/07/19 02:30:08;;;;;;;8.88;2.83;;;15.90;99.90;;;;;;7358648;32;20174;-61
2022/07/19 02:34:10;;;;;;;2.87;1.80;;;15.80;99.90;;;;;;7333866;32;20160;-61
2022/07/19 02:38:12;;;;;;;6.32;2.45;;;15.80;99.90;;;;;;7346094;32;20877;-62
2022/07/19 02:42:14;;;;;;;6.62;2.25;;;15.90;99.90;;;;;;7359115;32;20576;-62
2022/07/19 02:46:15;;;;;;;3.85;2.37;;;15.80;99.90;;;;;;7357546;32;20513;-61
2022/07/19 02:50:17;;;;;;;6.55;2.08;;;15.90;99.90;;;;;;7357657;32;20119;-61
2022/07/19 02:54:19;;;;;;;7.70;2.40;;;15.90;99.90;;;;;;7351447;32;20496;-61
2022/07/19 02:58:21;;;;;;;4.85;2.30;;;15.80;99.90;;;;;;7347978;32;20318;-60
2022/07/19 03:02:22;;;;;;;8.20;2.55;;;15.80;99.90;;;;;;7358306;32;20122;-60
2022/07/19 03:06:24;;;;;;;7.57;2.70;;;15.80;99.90;;;;;;7359303;32;20260;-61
2022/07/19 03:10:26;;;;;;;5.25;2.00;;;15.80;99.90;;;;;;7358097;32;20808;-61
2022/07/19 03:14:28;;;;;;;7.12;2.20;;;15.70;99.90;;;;;;7358571;32;20136;-60
2022/07/19 03:18:29;;;;;;;6.82;2.00;;;15.70;99.90;;;;;;7358001;32;20137;-61
2022/07/19 03:22:31;;;;;;;6.70;2.25;;;15.70;99.90;;;;;;7357123;32;20273;-61
2022/07/19 03:26:33;;;;;;;8.00;2.55;;;15.60;99.90;;;;;;7358591;32;20158;-61
2022/07/19 03:30:34;;;;;;;4.90;2.28;;;15.60;99.90;;;;;;7356735;32;20538;-61
2022/07/19 03:34:36;;;;;;;4.68;2.30;;;15.60;99.90;;;;;;7358677;32;20115;-60
2022/07/19 03:38:38;;;;;;;7.62;2.37;;;15.50;99.90;;;;;;7357378;32;20107;-61
2022/07/19 03:42:39;;;;;;;5.62;2.30;;;15.50;99.90;;;;;;7358049;32;20141;-61
2022/07/19 03:46:41;;;;;;;5.62;2.15;;;15.40;99.90;;;;;;7357839;32;20578;-61
2022/07/19 03:50:43;;;;;;;8.50;2.25;;;15.40;99.90;;;;;;7357349;32;20142;-61
2022/07/19 03:54:45;;;;;;;7.28;2.12;;;15.40;99.90;;;;;;7357851;32;20092;-60
2022/07/19 03:58:48;;;;;;;6.25;2.30;;;15.40;99.90;;;;;;7352599;32;20189;-60
2022/07/19 04:02:50;;;;;;;6.43;2.08;;;15.40;99.90;;;;;;7357946;32;20182;-60
2022/07/19 04:06:52;;;;;;;6.05;2.33;;;15.40;99.90;;;;;;7357860;32;20604;-60
2022/07/19 04:10:53;;;;;;;4.53;2.25;;;15.40;99.90;;;;;;7361924;32;20545;-61
2022/07/19 04:14:55;;;;;;;6.55;2.25;;;15.30;99.90;;;;;;7362866;32;20144;-61
2022/07/19 04:18:57;;;;;;;6.05;2.30;;;15.40;99.90;;;;;;7361906;32;20575;-61
2022/07/19 04:22:58;;;;;;;9.80;2.53;;;15.40;99.90;;;;;;7362889;32;20103;-61
2022/07/19 04:27:01;;;;;;;8.88;2.33;;;15.50;99.90;;;;;;7362676;32;20099;-61
2022/07/19 04:31:02;;;;;;;5.12;2.47;;;15.70;99.90;;;;;;7361712;32;20127;-61
2022/07/19 04:35:07;;;;;;;6.10;2.35;;;15.80;99.90;;;;;;7362522;32;20122;-61
2022/07/19 04:39:08;;;;;;;6.05;2.10;;;15.90;99.90;;;;;;7361954;32;20129;-61
2022/07/19 04:43:10;;;;;;;6.22;2.30;;;16.00;99.90;;;;;;7362228;32;20567;-61
2022/07/19 04:47:12;;;;;;;5.62;2.60;;;16.10;99.90;;;;;;7361882;32;20220;-65
2022/07/19 04:51:14;;;;;;;7.55;2.22;;;16.40;99.90;;;;;;7361136;32;20107;-64
2022/07/19 04:55:15;;;;;;;5.60;2.25;;;16.70;99.90;;;;;;7354102;32;20127;-64
2022/07/19 04:59:17;;;;;;;5.35;1.95;;;17.00;99.90;;;;;;7359894;32;20892;-64
2022/07/19 05:03:19;;;;;;;6.60;2.15;;;17.40;99.90;;;;;;7361621;32;20144;-64
2022/07/19 05:07:21;;;;;;;6.45;2.28;;;18.00;99.90;;;;;;7361155;32;20517;-65
2022/07/19 05:11:22;;;;;;;8.10;2.28;;;18.60;99.90;;;;;;7361412;32;20184;-65
2022/07/19 05:15:24;;;;;;;5.20;2.72;;;19.20;99.90;;;;;;7361279;32;20123;-64
2022/07/19 05:19:26;;;;;;;5.28;2.33;;;19.80;99.90;;;;;;7360347;32;20190;-64
2022/07/19 05:23:28;;;;;;;5.65;2.58;;;20.30;99.90;;;;;;7361349;32;20198;-65
2022/07/19 05:27:30;;;;;;;6.75;2.10;;;20.80;99.90;;;;;;7361105;32;20103;-64
2022/07/19 05:31:32;;;;;;;4.03;2.17;;;21.20;99.90;;;;;;7360578;32;20198;-65
2022/07/19 05:35:34;;;;;;;4.62;2.08;;;21.40;99.90;;;;;;7360864;32;20163;-69
2022/07/19 05:39:36;;;;;;;5.75;2.08;;;21.60;99.90;;;;;;7345952;32;20095;-65
2022/07/19 05:43:39;;;;;;;6.62;2.60;;;21.70;99.90;;;;;;7361065;32;20132;-66
2022/07/19 05:47:41;;;;;;;5.93;2.20;;;21.90;99.90;;;;;;7359449;32;20118;-66
2022/07/19 05:51:43;;;;;;;6.47;2.10;;;22.00;99.90;;;;;;7360955;32;20230;-66
2022/07/19 05:55:45;;;;;;;4.20;2.10;;;22.20;99.90;;;;;;7360045;32;20655;-65
2022/07/19 05:59:47;;;;;;;7.22;2.20;;;22.20;99.90;;;;;;7334794;32;20132;-65
2022/07/19 06:03:52;;;;;;;4.35;1.90;;;22.10;99.90;;;;;;7334899;32;20540;-65
2022/07/19 06:07:59;;;;;;;4.30;1.70;;;22.20;99.90;;;;;;7350484;32;20103;-66
2022/07/19 06:12:01;;;;;;;5.82;1.80;;;22.20;99.90;;;;;;7360587;32;20502;-65
2022/07/19 06:16:03;;;;;;;4.30;1.67;;;22.30;99.90;;;;;;7359935;32;20218;-65
2022/07/19 06:20:06;;;;;;;3.87;1.90;;;22.70;99.90;;;;;;7359288;32;20114;-65
2022/07/19 06:24:07;;;;;;;4.18;1.62;;;23.50;99.90;;;;;;7359774;32;20117;-65
2022/07/19 06:28:09;;;;;;;4.55;1.50;;;24.60;99.90;;;;;;7358842;32;20130;-66
2022/07/19 06:32:11;;;;;;;6.53;1.77;;;25.60;99.90;;;;;;7359237;32;20130;-65
2022/07/19 06:36:13;;;;;;;4.55;1.60;;;26.60;99.90;;;;;;7358929;32;20250;-66
2022/07/19 06:40:15;;;;;;;5.62;1.75;;;27.60;99.90;;;;;;7358293;32;20813;-66
2022/07/19 06:44:17;;;;;;;6.93;1.77;;;28.00;99.90;;;;;;7359268;32;20111;-66
2022/07/19 06:48:19;;;;;;;4.30;1.90;;;28.90;99.90;;;;;;7358115;32;20134;-66
2022/07/19 06:52:21;;;;;;;6.10;1.67;;;29.50;99.90;;;;;;7358850;32;20099;-62
2022/07/19 06:56:22;;;;;;;4.20;1.48;;;30.10;94.00;;;;;;7340691;32;20221;-62
2022/07/19 07:00:24;;;;;;;5.45;1.55;;;30.50;94.20;;;;;;7333002;32;20104;-62
2022/07/19 07:04:26;;;;;;;8.10;1.52;;;30.70;79.90;;;;;;7333424;32;20132;-62
2022/07/19 07:08:39;;;;;;;6.20;1.45;;;30.70;80.60;;;;;;7352589;32;20148;-62
2022/07/19 07:12:40;;;;;;;6.07;1.67;;;30.70;77.10;;;;;;7358911;32;20474;-62
2022/07/19 07:16:42;;;;;;;5.53;1.40;;;30.70;73.70;;;;;;7358080;32;21052;-62
2022/07/19 07:20:44;;;;;;;7.85;1.50;;;30.60;76.80;;;;;;7357993;32;20431;-62
2022/07/19 07:24:46;;;;;;;6.18;1.52;;;30.70;68.60;;;;;;7358519;32;20167;-63
2022/07/19 07:28:47;;;;;;;4.55;1.80;;;30.50;66.30;;;;;;7357268;32;20182;-62
2022/07/19 07:32:49;;;;;;;6.12;1.50;;;30.40;69.60;;;;;;7358928;32;20154;-62
2022/07/19 07:36:51;;;;;;;5.35;1.50;;;30.30;68.90;;;;;;7358368;32;20103;-62
2022/07/19 07:40:53;;;;;;;4.18;1.45;;;30.40;69.70;;;;;;7357226;32;20186;-63
2022/07/19 07:45:14;;;;;;;3.45;1.40;;;30.30;67.20;;;;;;7358300;32;20102;-62
2022/07/19 07:49:16;;;;;;;7.28;1.67;;;30.20;66.70;;;;;;7357023;32;20200;-62
2022/07/19 07:53:18;;;;;;;3.50;1.60;;;29.80;64.90;;;;;;7356888;32;20166;-63
2022/07/19 07:57:20;;;;;;;4.70;1.60;;;29.50;66.90;;;;;;7333989;32;20611;-62
2022/07/19 08:01:22;;;;;;;3.08;1.40;;;29.30;69.20;;;;;;7331810;32;20127;-61
2022/07/19 08:05:23;;;;;;;8.10;1.60;;;29.10;66.70;;;;;;7332842;32;20194;-62
2022/07/19 08:09:25;;;;;;;5.68;1.40;;;29.00;67.20;;;;;;7355542;32;20111;-62
2022/07/19 08:13:27;;;;;;;5.97;1.70;;;29.20;68.40;;;;;;7357911;32;20168;-61
2022/07/19 08:17:29;;;;;;;6.43;1.62;;;29.20;65.50;;;;;;7357418;32;20520;-62
2022/07/19 08:21:31;;;;;;;6.43;1.80;;;29.60;66.60;;;;;;7357534;32;20490;-61
2022/07/19 08:25:34;;;;;;;3.50;1.83;;;30.20;64.30;;;;;;7357867;32;20202;-62
2022/07/19 08:29:36;;;;;;;7.65;1.70;;;30.80;65.40;;;;;;7356791;32;20148;-62
2022/07/19 08:33:38;;;;;;;7.25;1.92;;;31.60;63.10;;;;;;7357924;32;20099;-62
2022/07/19 08:37:40;;;;;;;3.42;1.60;;;32.00;63.60;;;;;;7357289;32;20091;-62
2022/07/19 08:41:46;;;;;;;5.97;1.60;;;32.70;61.10;;;;;;7358042;32;20107;-62
2022/07/19 08:45:49;;;;;;;7.67;1.77;;;33.10;57.20;;;;;;7357240;32;20579;-63
2022/07/19 08:49:50;;;;;;;4.25;1.37;;;33.60;55.40;;;;;;7331625;32;20241;-62
2022/07/19 08:53:52;;;;;;;5.20;1.90;;;33.90;56.10;;;;;;7337848;32;20895;-63
2022/07/19 08:57:57;;;;;;;4.90;1.42;;;34.30;55.70;;;;;;7348200;32;20125;-63
2022/07/19 09:01:59;;;;;;;6.07;1.60;;;35.20;55.60;;;;;;7336633;32;20190;-62
2022/07/19 09:06:04;;;;;;;5.30;1.50;;;35.70;54.60;;;;;;7338465;32;20530;-62
2022/07/19 09:10:22;;;;;;;4.93;1.40;;;35.70;49.90;;;;;;7361255;32;20194;-63
2022/07/19 09:14:25;;;;;;;4.53;1.80;;;36.20;50.80;;;;;;7362296;32;20756;-63
2022/07/19 09:18:33;;;;;;;7.25;1.90;;;36.20;50.50;;;;;;7359808;32;20106;-63
2022/07/19 09:22:38;;;;;;;6.00;1.95;;;36.70;49.80;;;;;;7360572;32;20107;-63
2022/07/19 09:26:56;;;;;;;6.77;1.80;;;37.10;50.60;;;;;;7361598;32;20500;-63
2022/07/19 09:30:59;;;;;;;4.15;1.42;;;37.10;48.30;;;;;;7359044;32;20117;-63
2022/07/19 09:35:02;;;;;;;5.10;1.70;;;37.70;51.00;;;;;;7360830;32;20126;-63
2022/07/19 09:39:04;;;;;;;4.10;1.50;;;37.80;47.10;;;;;;7360352;32;20252;-63
2022/07/19 09:43:05;;;;;;;6.72;1.65;;;37.80;44.70;;;;;;7361215;32;20155;-63
2022/07/19 09:47:07;;;;;;;5.22;1.70;;;38.20;43.90;;;;;;7360599;32;20163;-62
2022/07/19 09:51:13;;;;;;;;;;;38.00;44.50;;;;;;7360217;32;20146;-63
2022/07/19 09:55:16;;;;;;;7.65;1.62;;;37.90;43.70;;;;;;7361009;32;20038;-62
2022/07/19 09:59:19;;;;;;;2.90;1.75;;;38.10;46.10;;;;;;7359358;32;20619;-64
2022/07/19 10:03:20;;;;;;;5.30;1.50;;;38.30;44.10;;;;;;7360788;32;20476;-63
2022/07/19 10:07:23;;;;;;;4.75;1.58;;;38.30;42.40;;;;;;7360329;32;20144;-63
2022/07/19 10:11:26;;;;;;;5.75;1.60;;;38.70;44.40;;;;;;7359950;32;20218;-63
2022/07/19 10:15:31;;;;;;;3.97;1.65;;;38.60;42.10;;;;;;7360605;32;20151;-62
2022/07/19 10:19:39;;;;;;;;;;;38.70;41.60;;;;;;7359666;32;20175;-63
2022/07/19 10:23:51;;;;;;;4.10;1.45;;;38.80;42.40;;;;;;7359954;32;20006;-62
2022/07/19 10:27:56;;;;;;;4.40;1.50;;;38.70;39.50;;;;;;7359735;32;20170;-62
2022/07/19 10:32:10;;;;;;;4.25;1.37;;;38.30;38.00;;;;;;7359674;32;20103;-63
2022/07/19 10:36:54;;;;;;;4.78;1.40;;;38.40;39.80;;;;;;7359807;32;20157;-63
2022/07/19 10:40:56;;;;;;;2.92;1.55;;;38.30;38.90;;;;;;7358715;32;20170;-63
2022/07/19 10:44:59;;;;;;;6.80;1.60;;;38.70;39.80;;;;;;7360006;32;20125;-63
2022/07/19 10:49:01;;;;;;;4.10;1.67;;;38.30;40.40;;;;;;7358281;32;20787;-62
2022/07/19 10:53:03;;;;;;;2.95;1.40;;;38.30;38.10;;;;;;7359347;32;20524;-63
2022/07/19 10:57:05;;;;;;;5.82;1.55;;;38.10;42.20;;;;;;7340602;32;20209;-62
2022/07/19 11:01:16;;;;;;;4.15;1.00;;;38.20;38.10;;;;;;7358596;32;20182;-62
2022/07/19 11:05:25;;;;;;;6.03;1.30;;;38.00;40.00;;;;;;7359233;32;20157;-63
2022/07/19 11:09:39;;;;;;;4.57;1.27;;;38.00;37.10;;;;;;7357813;32;20141;-62
2022/07/19 11:14:03;;;;;;;4.15;1.48;;;37.80;37.00;;;;;;7359364;32;20195;-63
2022/07/19 11:18:07;;;;;;;5.15;1.40;;;37.70;38.20;;;;;;7358283;32;20108;-63
2022/07/19 11:22:11;;;;;;;3.65;1.23;;;37.80;37.40;;;;;;7358096;32;20099;-62
2022/07/19 11:26:20;;;;;;;2.13;1.10;;;37.80;38.80;;;;;;7358916;32;20281;-62
2022/07/19 11:30:24;;;;;;;2.33;1.25;;;37.70;39.00;;;;;;7346911;32;20470;-62
2022/07/19 11:34:27;;;;;;;4.28;1.35;;;37.50;36.90;;;;;;7358444;32;20164;-62
2022/07/19 11:38:49;;;;;;;3.90;1.52;;;37.50;36.90;;;;;;7357727;32;20151;-64
2022/07/19 11:42:52;;;;;;;3.97;1.37;;;37.30;37.80;;;;;;7358663;32;20943;-62
2022/07/19 11:47:15;;;;;;;7.25;1.30;;;37.40;37.70;;;;;;7358391;32;20096;-62
2022/07/19 11:51:17;;;;;;;5.43;1.27;;;37.40;36.70;;;;;;7357209;32;20175;-62
2022/07/19 11:55:24;;;;;;;2.95;1.42;;;37.40;37.30;;;;;;7344216;32;20103;-62
2022/07/19 11:59:25;;;;;;;3.40;1.40;;;37.40;36.50;;;;;;7354258;32;20521;-62
2022/07/19 12:03:27;;;;;;;5.87;1.33;;;37.50;38.80;;;;;;7358506;32;20122;-62
2022/07/19 12:07:29;;;;;;;4.60;1.37;;;37.50;35.90;;;;;;7357025;32;20134;-62
2022/07/19 12:11:41;;;;;;;2.15;1.40;;;37.50;37.60;;;;;;7358117;32;20198;-62
2022/07/19 12:15:50;;;;;;;5.50;1.70;;;37.50;36.20;;;;;;7358117;32;20108;-62
2022/07/19 12:20:07;;;;;;;4.55;1.60;;;37.50;37.10;;;;;;7357554;32;20256;-61
2022/07/19 12:24:30;;;;;;;5.10;1.48;;;37.40;37.60;;;;;;7358241;32;20096;-61
2022/07/19 12:28:32;;;;;;;11.63;2.42;;;37.30;37.10;;;;;;7357067;32;20724;-64
2022/07/19 12:32:37;;;;;;;10.68;1.62;;;37.40;36.10;;;;;;7363269;32;20213;-62
2022/07/19 12:36:39;;;;;;;6.47;1.70;;;37.30;37.30;;;;;;7362555;32;20478;-62
2022/07/19 12:40:42;;;;;;;5.90;1.52;;;37.30;37.80;;;;;;7362139;32;20095;-64
2022/07/19 12:44:44;;;;;;;4.25;1.50;;;37.30;35.40;;;;;;7362631;32;20326;-62
2022/07/19 12:48:46;;;;;;;6.25;1.98;;;37.20;38.70;;;;;;7361413;32;20130;-62
2022/07/19 12:52:50;;;;;;;2.47;1.30;;;37.30;37.50;;;;;;7361849;32;20190;-62
2022/07/19 12:56:52;;;;;;;6.47;1.60;;;37.50;36.90;;;;;;7357425;32;20182;-62
2022/07/19 13:00:54;;;;;;;2.12;1.30;;;37.60;37.60;;;;;;7361076;32;20219;-62
2022/07/19 13:04:58;;;;;;;5.70;1.65;;;37.60;35.30;;;;;;7361897;32;20805;-61
2022/07/19 13:09:00;;;;;;;3.37;1.37;;;37.50;34.20;;;;;;7360593;32;20820;-62
2022/07/19 13:13:02;;;;;;;3.83;1.20;;;37.70;35.60;;;;;;7360359;32;20115;-61
2022/07/19 13:17:04;;;;;;;4.78;1.75;;;37.50;33.90;;;;;;7360758;32;20133;-62
2022/07/19 13:21:07;;;;;;;5.07;1.30;;;37.70;36.00;;;;;;7360637;32;20160;-62
2022/07/19 13:25:13;;;;;;;4.32;1.30;;;37.80;36.60;;;;;;7361363;32;20574;-62
2022/07/19 13:29:35;;;;;;;2.35;1.10;;;37.90;34.00;;;;;;7360174;32;20224;-62
2022/07/19 13:33:36;;;;;;;7.28;2.55;;;37.80;36.00;;;;;;7360812;32;20638;-62
2022/07/19 13:37:39;;;;;;;4.07;1.58;;;38.20;34.60;;;;;;7358153;32;20103;-62
2022/07/19 13:41:40;;;;;;;4.43;1.55;;;37.90;36.40;;;;;;7359827;32;20515;-61
2022/07/19 13:45:50;;;;;;;3.28;1.50;;;38.50;33.90;;;;;;7360334;32;20400;-62
2022/07/19 13:49:52;;;;;;;3.58;1.30;;;38.80;32.90;;;;;;7359193;32;20122;-62
2022/07/19 13:53:54;;;;;;;4.10;1.25;;;38.90;34.00;;;;;;7355337;32;20103;-66
2022/07/19 13:57:55;;;;;;;2.72;1.42;;;39.40;34.00;;;;;;7346179;32;20535;-62
2022/07/19 14:01:57;;;;;;;4.70;1.35;;;39.40;33.70;;;;;;7359528;32;20124;-62
2022/07/19 14:05:59;;;;;;;4.45;1.40;;;39.40;33.20;;;;;;7360112;32;20100;-63
2022/07/19 14:10:01;;;;;;;3.70;1.25;;;39.10;33.90;;;;;;7358818;32;20167;-63
2022/07/19 14:14:04;;;;;;;4.45;1.37;;;39.10;35.00;;;;;;7359131;32;20103;-62
2022/07/19 14:18:06;;;;;;;1.87;1.33;;;38.90;35.50;;;;;;7358672;32;20555;-62
2022/07/19 14:22:08;;;;;;;2.47;1.33;;;38.60;36.00;;;;;;7359733;32;20127;-61
2022/07/19 14:26:10;;;;;;;4.75;1.10;;;39.00;34.90;;;;;;7359708;32;20147;-62
2022/07/19 14:30:12;;;;;;;3.47;1.62;;;39.10;33.50;;;;;;7333113;32;20131;-61
2022/07/19 14:34:14;;;;;;;4.03;1.40;;;39.60;33.60;;;;;;7333640;32;20516;-63
2022/07/19 14:38:35;;;;;;;5.07;1.30;;;40.60;32.50;;;;;;7348414;32;20143;-62
2022/07/19 14:42:38;;;;;;;3.33;1.30;;;41.00;31.30;;;;;;7359408;32;20127;-62
2022/07/19 14:46:45;;;;;;;4.37;1.23;;;40.90;32.10;;;;;;7358533;32;20129;-63
2022/07/19 14:50:47;;;;;;;3.12;1.30;;;41.00;31.50;;;;;;7357784;32;20130;-62
2022/07/19 14:54:49;;;;;;;6.68;1.33;;;40.40;31.70;;;;;;7347681;32;20548;-62
2022/07/19 14:58:50;;;;;;;4.82;1.52;;;40.30;32.00;;;;;;7350886;32;20106;-62
2022/07/19 15:02:53;;;;;;;2.60;1.50;;;40.10;31.70;;;;;;7358596;32;20114;-62
2022/07/19 15:06:54;;;;;;;7.30;1.48;;;39.50;32.00;;;;;;7357858;32;20273;-62
2022/07/19 15:10:56;;;;;;;4.07;1.20;;;39.20;33.20;;;;;;7357438;32;20107;-61
2022/07/19 15:14:58;;;;;;;2.62;1.27;;;38.80;33.50;;;;;;7357890;32;20122;-61
2022/07/19 15:19:00;;;;;;;4.82;1.37;;;38.60;33.40;;;;;;7356776;32;20118;-61
2022/07/19 15:23:02;;;;;;;3.55;1.55;;;38.30;34.10;;;;;;7358354;32;20128;-62
2022/07/19 15:27:04;;;;;;;3.58;1.40;;;38.40;32.90;;;;;;7358762;32;20251;-61
2022/07/19 15:31:06;;;;;;;3.72;1.33;;;38.10;31.70;;;;;;7355263;32;20534;-62
2022/07/19 15:35:08;;;;;;;1.98;1.20;;;37.70;33.90;;;;;;7357481;32;20487;-61
2022/07/19 15:39:20;;;;;;;3.37;1.60;;;37.40;35.00;;;;;;7356588;32;20175;-62
2022/07/19 15:43:22;;;;;;;3.08;1.60;;;37.50;32.10;;;;;;7357515;32;20175;-61
2022/07/19 15:47:24;;;;;;;5.07;1.73;;;37.30;33.30;;;;;;7357473;32;20103;-61
2022/07/19 15:51:27;;;;;;;4.70;1.30;;;37.10;34.60;;;;;;7356851;32;20099;-61
2022/07/19 15:55:29;;;;;;;5.53;1.77;;;36.90;35.30;;;;;;7342164;32;20218;-62
2022/07/19 15:59:31;;;;;;;7.87;2.00;;;36.60;33.00;;;;;;7353989;32;20107;-61
2022/07/19 16:03:33;;;;;;;4.30;1.83;;;36.60;35.60;;;;;;7359024;32;20137;-62
2022/07/19 16:07:35;;;;;;;7.00;1.90;;;36.60;34.60;;;;;;7362143;32;20706;-61
2022/07/19 16:11:37;;;;;;;4.43;1.80;;;36.50;35.60;;;;;;7362230;32;20837;-63
2022/07/19 16:15:39;;;;;;;2.75;1.67;;;36.30;34.80;;;;;;7362832;32;20171;-61
2022/07/19 16:19:40;;;;;;;4.22;1.65;;;36.30;36.90;;;;;;7361465;32;20118;-61
2022/07/19 16:23:43;;;;;;;5.75;1.92;;;36.20;35.90;;;;;;7362705;32;20179;-61
2022/07/19 16:27:46;;;;;;;8.48;2.00;;;36.30;34.60;;;;;;7361725;32;20242;-62
2022/07/19 16:31:48;;;;;;;3.08;1.62;;;36.20;36.60;;;;;;7362735;32;20107;-62
2022/07/19 16:35:50;;;;;;;3.20;2.00;;;35.90;36.50;;;;;;7362107;32;20151;-61
2022/07/19 16:39:51;;;;;;;6.22;1.92;;;35.90;36.00;;;;;;7361423;32;20136;-62
2022/07/19 16:43:53;;;;;;;4.40;1.75;;;35.70;36.00;;;;;;7361505;32;20107;-61
2022/07/19 16:47:55;;;;;;;8.68;1.80;;;35.70;36.10;;;;;;7361054;32;20923;-62
2022/07/19 16:51:57;;;;;;;3.78;1.73;;;35.50;37.10;;;;;;7361607;32;20125;-62
2022/07/19 16:55:59;;;;;;;5.47;2.05;;;35.40;37.60;;;;;;7343314;32;20107;-61
2022/07/19 17:00:01;;;;;;;3.92;1.65;;;35.30;37.80;;;;;;7360837;32;20122;-61
2022/07/19 17:04:03;;;;;;;3.70;1.77;;;35.30;37.80;;;;;;7361450;32;20095;-63
2022/07/19 17:08:06;;;;;;;2.83;1.90;;;35.30;37.90;;;;;;7360545;32;20321;-62
2022/07/19 17:12:08;;;;;;;5.18;1.80;;;35.20;38.20;;;;;;7360273;32;20222;-61
2022/07/19 17:16:10;;;;;;;4.07;2.10;;;35.20;37.70;;;;;;7360263;32;20134;-61
2022/07/19 17:20:12;;;;;;;5.65;1.80;;;35.10;40.00;;;;;;7360400;32;20100;-61
2022/07/19 17:24:13;;;;;;;3.33;1.65;;;34.90;38.40;;;;;;7360917;32;20123;-62
2022/07/19 17:28:15;;;;;;;4.22;1.70;;;34.70;38.80;;;;;;7360679;32;20213;-61
2022/07/19 17:32:17;;;;;;;4.43;1.87;;;34.60;39.20;;;;;;7361073;32;20750;-61
2022/07/19 17:36:19;;;;;;;4.22;1.70;;;34.40;39.40;;;;;;7361308;32;20125;-62
2022/07/19 17:40:20;;;;;;;5.53;1.70;;;34.10;40.30;;;;;;7359512;32;20104;-61
2022/07/19 17:44:22;;;;;;;7.72;2.00;;;34.00;40.00;;;;;;7359874;32;20125;-61
2022/07/19 17:48:24;;;;;;;5.53;1.87;;;33.90;38.90;;;;;;7359860;32;20182;-62
2022/07/19 17:52:26;;;;;;;19.23;2.53;;;33.70;40.70;;;;;;7359617;32;20580;-61
2022/07/19 17:56:27;;;;;;;4.97;2.30;;;33.60;40.00;;;;;;7356510;32;20144;-61
2022/07/19 18:00:29;;;;;;;3.62;1.92;;;33.40;39.60;;;;;;7333990;32;20110;-61
2022/07/19 18:04:31;;;;;;;5.25;2.05;;;33.30;39.60;;;;;;7352673;32;20877;-61
2022/07/19 18:08:33;;;;;;;6.90;2.33;;;33.10;38.70;;;;;;7359140;32;20095;-61
2022/07/19 18:12:34;;;;;;;7.03;2.10;;;32.90;40.50;;;;;;7358975;32;20168;-62
2022/07/19 18:16:37;;;;;;;4.55;1.73;;;32.80;39.00;;;;;;7359542;32;20257;-61
2022/07/19 18:20:58;;;;;;;5.07;1.92;;;32.60;38.70;;;;;;7358603;32;20095;-61
2022/07/19 18:25:00;;;;;;;7.87;3.40;;;32.50;40.90;;;;;;7359587;32;20118;-61
2022/07/19 18:29:02;;;;;;;9.52;3.97;;;32.30;40.70;;;;;;7357781;32;20190;-61
2022/07/19 18:33:04;;;;;;;7.50;2.45;;;32.20;44.30;;;;;;7359630;32;20106;-61
2022/07/19 18:37:06;;;;;;;2.97;2.10;;;31.80;42.20;;;;;;7359484;32;20601;-61
2022/07/19 18:41:08;;;;;;;4.20;2.10;;;31.60;41.90;;;;;;7358959;32;20119;-61
2022/07/19 18:45:10;;;;;;;4.18;2.40;;;31.40;42.10;;;;;;7358660;32;20114;-62
2022/07/19 18:49:12;;;;;;;3.33;1.90;;;31.20;43.50;;;;;;7358217;32;20103;-61
2022/07/19 18:53:14;;;;;;;4.95;2.00;;;31.10;45.70;;;;;;7358006;32;20174;-61
2022/07/19 18:57:16;;;;;;;3.78;1.83;;;30.80;44.20;;;;;;7341933;32;20206;-61
2022/07/19 19:01:18;;;;;;;3.45;2.00;;;30.60;44.30;;;;;;7358533;32;20156;-61
2022/07/19 19:05:19;;;;;;;4.62;2.30;;;30.40;46.40;;;;;;7358745;32;20114;-61
2022/07/19 19:09:21;;;;;;;3.95;2.20;;;30.10;49.30;;;;;;7358169;32;20227;-61
2022/07/19 19:13:23;;;;;;;5.15;2.35;;;29.70;54.20;;;;;;7357897;32;20127;-61
2022/07/19 19:17:25;;;;;;;5.87;2.20;;;29.30;57.60;;;;;;7358371;32;20128;-61
2022/07/19 19:21:27;;;;;;;6.53;2.40;;;28.90;59.80;;;;;;7357575;32;20100;-61
2022/07/19 19:25:29;;;;;;;7.43;2.58;;;28.60;62.10;;;;;;7358026;32;20135;-61
2022/07/19 19:29:30;;;;;;;10.55;2.67;;;28.20;67.90;;;;;;7357503;32;20172;-60
2022/07/19 19:33:32;;;;;;;6.62;3.03;;;27.60;75.40;;;;;;7358228;32;20115;-60
2022/07/19 19:37:35;;;;;;;5.57;2.87;;;27.20;82.60;;;;;;7357317;32;20122;-61
2022/07/19 19:41:37;;;;;;;5.07;3.15;;;26.80;87.90;;;;;;7358334;32;20122;-62
2022/07/19 19:45:40;;;;;;;11.80;5.07;;;26.40;92.40;;;;;;7357487;32;20137;-61
2022/07/19 19:49:42;;;;;;;6.75;3.03;;;26.10;96.40;;;;;;7356823;32;20095;-61
2022/07/19 19:53:43;;;;;;;8.25;2.83;;;25.70;99.60;;;;;;7356965;32;20099;-61
2022/07/19 19:57:45;;;;;;;12.48;5.25;;;25.40;99.90;;;;;;7344822;32;20127;-61
2022/07/19 20:01:47;;;;;;;7.80;3.42;;;25.10;99.90;;;;;;7331762;32;20104;-60
2022/07/19 20:05:49;;;;;;;8.90;2.72;;;24.90;99.90;;;;;;7356072;32;20104;-61
2022/07/19 20:09:50;;;;;;;8.63;3.05;;;24.60;99.90;;;;;;7355086;32;20111;-61
2022/07/19 20:13:52;;;;;;;8.52;2.40;;;24.30;99.90;;;;;;7355744;32;20240;-61
2022/07/19 20:17:54;;;;;;;9.30;2.90;;;24.10;99.90;;;;;;7355611;32;20176;-61
2022/07/19 20:21:56;;;;;;;5.55;2.72;;;23.90;99.90;;;;;;7357507;32;20294;-61
2022/07/19 20:25:58;;;;;;;6.00;2.78;;;23.70;99.90;;;;;;7356935;32;20186;-63
2022/07/19 20:29:59;;;;;;;5.87;3.10;;;23.50;99.90;;;;;;7356562;32;20332;-61
2022/07/19 20:34:01;;;;;;;8.40;2.60;;;23.30;99.90;;;;;;7356133;32;20117;-61
2022/07/19 20:38:03;;;;;;;7.75;3.10;;;23.20;99.90;;;;;;7354081;32;20556;-61
2022/07/19 20:42:15;;;;;;;17.20;13.70;;;23.10;99.90;;;;;;7357146;32;20114;-62
2022/07/19 20:46:17;;;;;;;9.52;3.47;;;23.00;99.90;;;;;;7357279;32;20103;-61
2022/07/19 20:50:33;;;;;;;5.82;3.03;;;22.80;99.90;;;;;;7357229;32;20171;-61
2022/07/19 20:54:35;;;;;;;22.37;16.27;;;22.70;99.90;;;;;;7351719;32;20096;-62
2022/07/19 20:58:37;;;;;;;9.52;4.50;;;22.60;99.90;;;;;;7352297;32;20242;-61
2022/07/19 21:02:39;;;;;;;6.15;3.00;;;22.50;99.90;;;;;;7361425;32;20100;-61
2022/07/19 21:06:41;;;;;;;6.70;2.62;;;22.40;99.90;;;;;;7361728;32;20123;-61